createdAt,value
2017-08-21T16:26:45.956Z,97646.84
2017-08-21T16:31:32.607Z,97639.60
2017-08-21T16:36:19.345Z,97636.44
2017-08-21T16:41:05.990Z,97641.42
2017-08-21T16:45:52.674Z,97645.25
2017-08-21T16:50:39.323Z,97643.56
2017-08-21T16:55:25.958Z,97643.80
2017-08-21T17:00:12.585Z,97647.11
2017-08-21T17:04:59.303Z,97648.77
2017-08-21T17:09:46.510Z,97657.30
2017-08-21T17:14:33.147Z,97648.92
2017-08-21T17:19:20.664Z,97656.80
2017-08-21T17:24:07.371Z,97658.73
2017-08-21T17:28:54.042Z,97658.19
2017-08-21T17:33:40.781Z,97662.61
2017-08-21T17:38:27.833Z,97667.70
2017-08-21T17:43:14.534Z,97661.25
2017-08-21T17:48:01.226Z,97676.63
2017-08-21T17:52:48.049Z,97676.72
2017-08-21T17:57:34.712Z,97684.52
2017-08-21T18:02:21.459Z,97686.62
2017-08-21T18:07:08.122Z,97685.31
2017-08-21T18:11:54.774Z,97686.91
2017-08-21T18:16:41.447Z,97688.41
2017-08-21T18:21:28.342Z,97690.14
2017-08-21T18:26:15.074Z,97693.98
2017-08-21T18:31:01.770Z,97708.30
2017-08-21T18:35:48.534Z,97699.48
2017-08-21T18:40:35.530Z,97694.55
2017-08-21T18:45:22.230Z,97705.39
2017-08-21T18:50:08.948Z,97696.92
2017-08-21T18:54:55.765Z,97705.01
2017-08-21T18:59:42.447Z,97710.09
2017-08-21T19:04:29.136Z,97722.68
2017-08-21T19:09:16.091Z,97725.50
2017-08-21T19:14:02.781Z,97725.46
2017-08-21T19:18:49.475Z,97736.77
2017-08-21T19:23:36.167Z,97737.70
2017-08-21T19:28:22.861Z,97756.19
2017-08-21T19:33:09.900Z,97759.78
2017-08-21T19:37:56.570Z,97757.31
2017-08-21T19:42:43.479Z,97755.66
2017-08-21T19:47:30.205Z,97757.08
2017-08-21T19:52:16.967Z,97765.41
2017-08-21T19:57:03.687Z,97762.29
2017-08-21T20:01:50.399Z,97765.39
2017-08-21T20:06:37.354Z,97770.16
2017-08-21T20:11:24.044Z,97763.42
2017-08-21T20:16:10.752Z,97759.55
2017-08-21T20:20:57.737Z,97761.81
2017-08-21T20:25:44.647Z,97763.64
2017-08-21T20:30:31.446Z,97764.69
2017-08-21T20:35:18.112Z,97762.75
2017-08-21T20:40:05.198Z,97759.59
2017-08-21T20:44:52.059Z,97755.83
2017-08-21T20:49:38.849Z,97760.02
2017-08-21T20:54:25.486Z,97756.30
2017-08-21T20:59:12.396Z,97760.05
2017-08-21T21:03:59.042Z,97760.25
2017-08-21T21:08:45.656Z,97765.28
2017-08-21T21:13:32.461Z,97764.08
2017-08-21T21:18:19.152Z,97766.31
2017-08-21T21:23:06.335Z,97768.55
2017-08-21T21:27:53.262Z,97767.23
2017-08-21T21:32:39.936Z,97764.62
2017-08-21T21:37:26.568Z,97765.97
2017-08-21T21:42:13.228Z,97767.27
2017-08-21T21:47:00.242Z,97772.86
2017-08-21T21:51:47.070Z,97771.59
2017-08-21T21:56:33.749Z,97767.72
2017-08-21T22:01:20.829Z,97769.42
2017-08-21T22:06:07.451Z,97761.70
2017-08-21T22:10:54.073Z,97759.55
2017-08-21T22:15:40.975Z,97751.37
2017-08-21T22:20:27.640Z,97753.52
2017-08-21T22:25:14.273Z,97745.79
2017-08-21T22:30:00.912Z,97750.44
2017-08-21T22:34:47.565Z,97740.95
2017-08-21T22:39:34.281Z,97746.20
2017-08-21T22:44:20.934Z,97755.23
2017-08-21T22:49:07.588Z,97758.70
2017-08-21T22:53:54.242Z,97753.96
2017-08-21T22:58:40.897Z,97745.27
2017-08-21T23:03:27.616Z,97736.63
2017-08-21T23:08:14.325Z,97726.66
2017-08-21T23:13:01.265Z,97732.36
2017-08-21T23:17:47.913Z,97739.31
2017-08-21T23:22:35.189Z,97725.49
2017-08-21T23:27:21.837Z,97732.35
2017-08-21T23:32:08.465Z,97730.23
2017-08-21T23:36:55.085Z,97733.30
2017-08-21T23:41:42.454Z,97727.25
2017-08-21T23:46:29.223Z,97724.61
2017-08-21T23:51:16.263Z,97723.77
2017-08-21T23:56:02.967Z,97711.30
